sensor_id;sensor_type;location;lat;lon;timestamp;pressure;altitude;pressure_sealevel;temperature;humidity
20710;BME280;10516;51.518;9.864;2024-03-08T00:31:16;99227.03;;;0.53;76.06
20710;BME280;10516;51.518;9.864;2024-03-08T00:33:42;99236.84;;;0.59;77.00
20710;BME280;10516;51.518;9.864;2024-03-08T00:36:08;99224.78;;;1.53;75.00
20710;BME280;10516;51.518;9.864;2024-03-08T00:38:33;99234.91;;;2.00;72.88
20710;BME280;10516;51.518;9.864;2024-03-08T00:40:59;99241.19;;;2.35;71.94
20710;BME280;10516;51.518;9.864;2024-03-08T00:43:25;99230.72;;;2.42;71.03
20710;BME280;10516;51.518;9.864;2024-03-08T00:45:51;99232.69;;;2.18;71.86
20710;BME280;10516;51.518;9.864;2024-03-08T00:48:16;99225.38;;;2.14;71.41
20710;BME280;10516;51.518;9.864;2024-03-08T00:50:42;99220.03;;;2.28;71.48
20710;BME280;10516;51.518;9.864;2024-03-08T00:53:07;99217.66;;;1.98;70.91
20710;BME280;10516;51.518;9.864;2024-03-08T00:55:32;99225.88;;;2.45;71.29
20710;BME280;10516;51.518;9.864;2024-03-08T00:57:58;99212.47;;;2.40;70.96
20710;BME280;10516;51.518;9.864;2024-03-08T01:00:24;99213.84;;;2.36;70.75
20710;BME280;10516;51.518;9.864;2024-03-08T01:02:49;99212.09;;;2.43;70.74
20710;BME280;10516;51.518;9.864;2024-03-08T01:05:14;99210.50;;;2.27;70.68
20710;BME280;10516;51.518;9.864;2024-03-08T01:07:40;99213.59;;;2.31;70.65
20710;BME280;10516;51.518;9.864;2024-03-08T01:10:06;99213.47;;;2.18;71.20
20710;BME280;10516;51.518;9.864;2024-03-08T01:12:38;99208.13;;;2.11;71.42
20710;BME280;10516;51.518;9.864;2024-03-08T01:15:04;99198.53;;;2.25;70.88
20710;BME280;10516;51.518;9.864;2024-03-08T01:17:30;99195.88;;;2.25;71.44
20710;BME280;10516;51.518;9.864;2024-03-08T01:19:56;99196.41;;;2.14;71.14
20710;BME280;10516;51.518;9.864;2024-03-08T01:22:21;99183.44;;;1.47;71.16
20710;BME280;10516;51.518;9.864;2024-03-08T01:24:47;99189.34;;;2.00;71.53
20710;BME280;10516;51.518;9.864;2024-03-08T01:27:13;99183.59;;;2.11;71.65
20710;BME280;10516;51.518;9.864;2024-03-08T01:29:38;99188.41;;;1.72;72.51
20710;BME280;10516;51.518;9.864;2024-03-08T01:32:04;99178.00;;;1.99;71.52
20710;BME280;10516;51.518;9.864;2024-03-08T01:34:29;99164.41;;;1.96;71.46
20710;BME280;10516;51.518;9.864;2024-03-08T01:36:55;99156.88;;;1.93;71.20
20710;BME280;10516;51.518;9.864;2024-03-08T01:39:23;99163.66;;;2.02;70.83
20710;BME280;10516;51.518;9.864;2024-03-08T01:41:49;99159.88;;;1.90;71.06
20710;BME280;10516;51.518;9.864;2024-03-08T01:44:14;99149.56;;;1.74;70.93
20710;BME280;10516;51.518;9.864;2024-03-08T01:46:44;99150.28;;;2.03;71.42
20710;BME280;10516;51.518;9.864;2024-03-08T01:49:10;99139.47;;;1.92;70.67
20710;BME280;10516;51.518;9.864;2024-03-08T01:51:37;99144.81;;;1.48;72.20
20710;BME280;10516;51.518;9.864;2024-03-08T01:54:04;99132.00;;;1.45;72.37
20710;BME280;10516;51.518;9.864;2024-03-08T01:56:30;99145.63;;;1.48;73.10
20710;BME280;10516;51.518;9.864;2024-03-08T01:58:57;99143.41;;;1.67;72.14
20710;BME280;10516;51.518;9.864;2024-03-08T02:01:23;99126.50;;;1.76;71.69
20710;BME280;10516;51.518;9.864;2024-03-08T02:03:49;99138.88;;;1.61;72.84
20710;BME280;10516;51.518;9.864;2024-03-08T02:06:15;99134.28;;;1.84;71.29
20710;BME280;10516;51.518;9.864;2024-03-08T02:08:45;99126.59;;;1.82;71.72
20710;BME280;10516;51.518;9.864;2024-03-08T02:11:11;99121.41;;;1.89;71.06
20710;BME280;10516;51.518;9.864;2024-03-08T02:13:36;99109.47;;;1.72;71.26
20710;BME280;10516;51.518;9.864;2024-03-08T02:16:02;99121.75;;;1.86;71.41
20710;BME280;10516;51.518;9.864;2024-03-08T02:18:29;99115.63;;;1.79;71.38
20710;BME280;10516;51.518;9.864;2024-03-08T02:20:55;99107.75;;;1.79;71.37
20710;BME280;10516;51.518;9.864;2024-03-08T02:23:22;99107.19;;;1.69;71.79
20710;BME280;10516;51.518;9.864;2024-03-08T02:25:48;99089.09;;;1.59;71.44
20710;BME280;10516;51.518;9.864;2024-03-08T02:28:14;99088.97;;;1.67;71.54
20710;BME280;10516;51.518;9.864;2024-03-08T02:30:40;99101.38;;;1.73;71.63
20710;BME280;10516;51.518;9.864;2024-03-08T02:33:06;99106.91;;;1.78;71.21
20710;BME280;10516;51.518;9.864;2024-03-08T02:35:32;99099.03;;;1.78;71.32
20710;BME280;10516;51.518;9.864;2024-03-08T02:37:59;99099.38;;;1.75;71.31
20710;BME280;10516;51.518;9.864;2024-03-08T02:40:24;99099.22;;;1.77;71.15
20710;BME280;10516;51.518;9.864;2024-03-08T02:42:50;99098.72;;;1.88;70.99
20710;BME280;10516;51.518;9.864;2024-03-08T02:45:15;99090.38;;;1.84;70.89
20710;BME280;10516;51.518;9.864;2024-03-08T02:47:41;99090.50;;;1.76;70.60
20710;BME280;10516;51.518;9.864;2024-03-08T02:50:06;99096.06;;;1.67;71.02
20710;BME280;10516;51.518;9.864;2024-03-08T02:52:35;99086.63;;;1.58;71.66
20710;BME280;10516;51.518;9.864;2024-03-08T02:55:04;99087.66;;;1.57;71.51
20710;BME280;10516;51.518;9.864;2024-03-08T02:57:31;99092.38;;;1.46;71.54
20710;BME280;10516;51.518;9.864;2024-03-08T02:59:57;99088.13;;;1.45;72.14
20710;BME280;10516;51.518;9.864;2024-03-08T03:02:25;99085.03;;;1.57;71.82
20710;BME280;10516;51.518;9.864;2024-03-08T03:04:51;99070.63;;;1.52;71.96
20710;BME280;10516;51.518;9.864;2024-03-08T03:07:17;99082.81;;;1.60;71.39
20710;BME280;10516;51.518;9.864;2024-03-08T03:09:42;99066.97;;;1.53;72.08
20710;BME280;10516;51.518;9.864;2024-03-08T03:12:08;99061.72;;;1.53;71.80
20710;BME280;10516;51.518;9.864;2024-03-08T03:14:35;99070.13;;;1.64;71.79
20710;BME280;10516;51.518;9.864;2024-03-08T03:17:03;99065.72;;;1.49;71.68
20710;BME280;10516;51.518;9.864;2024-03-08T03:19:30;99070.84;;;1.58;71.46
20710;BME280;10516;51.518;9.864;2024-03-08T03:21:55;99060.19;;;1.44;72.05
20710;BME280;10516;51.518;9.864;2024-03-08T03:24:20;99065.91;;;1.48;72.14
20710;BME280;10516;51.518;9.864;2024-03-08T03:26:46;99067.03;;;1.60;71.72
20710;BME280;10516;51.518;9.864;2024-03-08T03:29:13;99062.56;;;1.39;71.80
20710;BME280;10516;51.518;9.864;2024-03-08T03:31:39;99058.84;;;1.34;71.99
20710;BME280;10516;51.518;9.864;2024-03-08T03:34:05;99052.72;;;1.12;73.65
20710;BME280;10516;51.518;9.864;2024-03-08T03:36:34;99062.03;;;1.29;72.19
20710;BME280;10516;51.518;9.864;2024-03-08T03:39:00;99055.69;;;1.38;72.43
20710;BME280;10516;51.518;9.864;2024-03-08T03:41:44;99065.44;;;1.44;71.58
20710;BME280;10516;51.518;9.864;2024-03-08T03:44:11;99066.31;;;1.30;71.74
20710;BME280;10516;51.518;9.864;2024-03-08T03:46:36;99060.97;;;1.24;71.87
20710;BME280;10516;51.518;9.864;2024-03-08T03:49:02;99061.59;;;1.26;71.84
20710;BME280;10516;51.518;9.864;2024-03-08T03:51:28;99065.28;;;1.31;72.23
20710;BME280;10516;51.518;9.864;2024-03-08T03:53:54;99062.31;;;1.34;71.82
20710;BME280;10516;51.518;9.864;2024-03-08T03:56:25;99061.13;;;1.22;71.81
20710;BME280;10516;51.518;9.864;2024-03-08T03:58:51;99060.50;;;1.35;72.31
20710;BME280;10516;51.518;9.864;2024-03-08T04:01:17;99056.06;;;1.35;71.77
20710;BME280;10516;51.518;9.864;2024-03-08T04:03:42;99054.63;;;1.33;71.52
20710;BME280;10516;51.518;9.864;2024-03-08T04:06:08;99050.97;;;1.34;72.18
20710;BME280;10516;51.518;9.864;2024-03-08T04:08:33;99046.25;;;1.29;72.02
20710;BME280;10516;51.518;9.864;2024-03-08T04:11:00;99047.44;;;1.41;71.92
20710;BME280;10516;51.518;9.864;2024-03-08T04:13:25;99046.94;;;1.17;71.45
20710;BME280;10516;51.518;9.864;2024-03-08T04:15:51;99034.75;;;1.30;72.70
20710;BME280;10516;51.518;9.864;2024-03-08T04:18:17;99056.38;;;1.47;71.65
20710;BME280;10516;51.518;9.864;2024-03-08T04:20:43;99035.09;;;1.42;71.95
20710;BME280;10516;51.518;9.864;2024-03-08T04:23:08;99044.56;;;1.58;71.85
20710;BME280;10516;51.518;9.864;2024-03-08T04:25:34;99044.06;;;1.47;71.89
20710;BME280;10516;51.518;9.864;2024-03-08T04:27:59;99029.13;;;1.33;71.52
20710;BME280;10516;51.518;9.864;2024-03-08T04:30:24;99040.50;;;1.55;71.51
20710;BME280;10516;51.518;9.864;2024-03-08T04:32:50;99033.47;;;1.41;71.15
20710;BME280;10516;51.518;9.864;2024-03-08T04:35:16;99045.03;;;1.46;71.59
20710;BME280;10516;51.518;9.864;2024-03-08T04:37:41;99045.94;;;1.53;71.76
20710;BME280;10516;51.518;9.864;2024-03-08T04:40:07;99050.56;;;1.51;71.30
20710;BME280;10516;51.518;9.864;2024-03-08T04:42:33;99046.63;;;1.62;71.46
20710;BME280;10516;51.518;9.864;2024-03-08T04:44:59;99043.44;;;1.45;71.91
20710;BME280;10516;51.518;9.864;2024-03-08T04:47:25;99037.72;;;1.42;71.69
20710;BME280;10516;51.518;9.864;2024-03-08T04:49:50;99032.34;;;1.50;71.33
20710;BME280;10516;51.518;9.864;2024-03-08T04:52:16;99033.53;;;1.47;71.27
20710;BME280;10516;51.518;9.864;2024-03-08T04:54:41;99036.34;;;1.46;71.51
20710;BME280;10516;51.518;9.864;2024-03-08T04:57:07;99020.75;;;1.44;71.28
20710;BME280;10516;51.518;9.864;2024-03-08T04:59:32;99029.03;;;1.41;71.23
20710;BME280;10516;51.518;9.864;2024-03-08T05:01:58;99016.03;;;1.40;71.60
20710;BME280;10516;51.518;9.864;2024-03-08T05:04:23;99034.56;;;1.32;72.07
20710;BME280;10516;51.518;9.864;2024-03-08T05:06:48;99030.16;;;1.18;72.36
20710;BME280;10516;51.518;9.864;2024-03-08T05:09:14;99030.69;;;1.28;72.09
20710;BME280;10516;51.518;9.864;2024-03-08T05:11:41;99022.03;;;1.34;72.06
20710;BME280;10516;51.518;9.864;2024-03-08T05:14:07;99029.38;;;1.38;71.60
20710;BME280;10516;51.518;9.864;2024-03-08T05:16:32;99026.75;;;1.38;71.85
20710;BME280;10516;51.518;9.864;2024-03-08T05:18:57;99015.91;;;1.27;71.90
20710;BME280;10516;51.518;9.864;2024-03-08T05:21:23;99023.06;;;1.33;72.00
20710;BME280;10516;51.518;9.864;2024-03-08T05:23:48;99019.41;;;1.34;71.92
20710;BME280;10516;51.518;9.864;2024-03-08T05:26:15;99001.06;;;1.19;71.80
20710;BME280;10516;51.518;9.864;2024-03-08T05:28:41;99012.28;;;1.28;71.93
20710;BME280;10516;51.518;9.864;2024-03-08T05:31:06;99013.81;;;1.22;72.32
20710;BME280;10516;51.518;9.864;2024-03-08T05:33:32;99011.47;;;1.27;71.88
20710;BME280;10516;51.518;9.864;2024-03-08T05:36:00;99010.47;;;1.28;71.55
20710;BME280;10516;51.518;9.864;2024-03-08T05:38:28;98997.06;;;1.23;71.52
20710;BME280;10516;51.518;9.864;2024-03-08T05:40:54;99002.31;;;1.23;71.95
20710;BME280;10516;51.518;9.864;2024-03-08T05:43:20;99008.66;;;1.29;71.75
20710;BME280;10516;51.518;9.864;2024-03-08T05:45:46;99000.94;;;1.27;72.15
20710;BME280;10516;51.518;9.864;2024-03-08T05:48:11;99007.31;;;1.18;72.31
20710;BME280;10516;51.518;9.864;2024-03-08T05:50:39;98997.88;;;1.09;72.71
20710;BME280;10516;51.518;9.864;2024-03-08T05:53:05;99011.31;;;1.14;72.14
20710;BME280;10516;51.518;9.864;2024-03-08T05:55:32;98989.22;;;0.94;72.60
20710;BME280;10516;51.518;9.864;2024-03-08T05:58:00;98998.00;;;1.01;72.88
20710;BME280;10516;51.518;9.864;2024-03-08T06:00:26;99007.63;;;0.94;72.86
20710;BME280;10516;51.518;9.864;2024-03-08T06:02:52;99015.78;;;0.99;72.91
20710;BME280;10516;51.518;9.864;2024-03-08T06:05:18;99005.25;;;0.99;73.15
20710;BME280;10516;51.518;9.864;2024-03-08T06:07:52;99008.91;;;0.98;73.15
20710;BME280;10516;51.518;9.864;2024-03-08T06:10:19;99003.72;;;0.90;73.37
20710;BME280;10516;51.518;9.864;2024-03-08T06:12:44;99016.41;;;1.01;73.39
20710;BME280;10516;51.518;9.864;2024-03-08T06:15:10;98991.31;;;0.99;72.78
20710;BME280;10516;51.518;9.864;2024-03-08T06:17:39;99002.91;;;1.04;72.85
20710;BME280;10516;51.518;9.864;2024-03-08T06:20:05;98991.03;;;1.08;72.95
20710;BME280;10516;51.518;9.864;2024-03-08T06:22:39;99006.72;;;1.02;72.79
20710;BME280;10516;51.518;9.864;2024-03-08T06:25:08;99012.72;;;0.96;73.48
20710;BME280;10516;51.518;9.864;2024-03-08T06:27:36;98995.56;;;1.00;73.22
20710;BME280;10516;51.518;9.864;2024-03-08T06:30:02;99003.06;;;1.03;73.21
20710;BME280;10516;51.518;9.864;2024-03-08T06:32:31;99002.47;;;0.86;73.75
20710;BME280;10516;51.518;9.864;2024-03-08T06:35:04;99015.78;;;0.85;73.87
20710;BME280;10516;51.518;9.864;2024-03-08T06:37:33;99012.34;;;0.84;74.55
20710;BME280;10516;51.518;9.864;2024-03-08T06:39:59;99001.47;;;1.02;73.60
20710;BME280;10516;51.518;9.864;2024-03-08T06:42:26;99009.41;;;1.08;73.82
20710;BME280;10516;51.518;9.864;2024-03-08T06:44:51;99010.31;;;1.15;73.84
20710;BME280;10516;51.518;9.864;2024-03-08T06:47:20;99004.09;;;1.02;74.12
20710;BME280;10516;51.518;9.864;2024-03-08T06:49:46;99000.91;;;1.06;73.65
20710;BME280;10516;51.518;9.864;2024-03-08T06:52:11;98999.25;;;1.05;74.44
20710;BME280;10516;51.518;9.864;2024-03-08T06:54:37;99006.31;;;1.19;73.71
20710;BME280;10516;51.518;9.864;2024-03-08T06:57:05;99004.19;;;0.94;74.93
20710;BME280;10516;51.518;9.864;2024-03-08T06:59:31;98999.81;;;1.15;74.55
20710;BME280;10516;51.518;9.864;2024-03-08T07:01:57;98997.41;;;1.35;73.51
20710;BME280;10516;51.518;9.864;2024-03-08T07:04:23;98990.81;;;1.24;73.75
20710;BME280;10516;51.518;9.864;2024-03-08T07:06:51;98995.97;;;1.53;73.25
20710;BME280;10516;51.518;9.864;2024-03-08T07:09:17;98999.91;;;1.43;73.35
20710;BME280;10516;51.518;9.864;2024-03-08T07:11:43;99007.03;;;1.49;73.08
20710;BME280;10516;51.518;9.864;2024-03-08T07:14:08;98998.84;;;1.37;73.87
20710;BME280;10516;51.518;9.864;2024-03-08T07:16:34;99002.53;;;1.43;73.43
20710;BME280;10516;51.518;9.864;2024-03-08T07:19:01;98993.03;;;1.42;73.48
20710;BME280;10516;51.518;9.864;2024-03-08T07:21:26;98997.34;;;1.49;73.51
20710;BME280;10516;51.518;9.864;2024-03-08T07:23:52;99003.97;;;1.45;73.78
20710;BME280;10516;51.518;9.864;2024-03-08T07:26:23;98999.19;;;1.13;74.83
20710;BME280;10516;51.518;9.864;2024-03-08T07:28:48;98991.69;;;0.96;75.59
20710;BME280;10516;51.518;9.864;2024-03-08T07:31:14;98991.69;;;-0.15;79.13
20710;BME280;10516;51.518;9.864;2024-03-08T07:33:51;98986.81;;;-0.18;80.50
20710;BME280;10516;51.518;9.864;2024-03-08T07:36:18;98999.34;;;0.10;80.26
20710;BME280;10516;51.518;9.864;2024-03-08T07:38:44;99000.88;;;-0.33;82.12
20710;BME280;10516;51.518;9.864;2024-03-08T07:41:12;98992.41;;;-0.21;81.50
20710;BME280;10516;51.518;9.864;2024-03-08T07:43:38;98991.25;;;-0.41;83.22
20710;BME280;10516;51.518;9.864;2024-03-08T07:46:03;98974.47;;;-0.32;82.91
20710;BME280;10516;51.518;9.864;2024-03-08T07:48:29;98979.81;;;0.12;82.36
20710;BME280;10516;51.518;9.864;2024-03-08T07:50:55;98980.25;;;-0.36;82.67
20710;BME280;10516;51.518;9.864;2024-03-08T07:53:21;98982.97;;;-0.30;83.86
20710;BME280;10516;51.518;9.864;2024-03-08T07:55:46;98970.69;;;0.08;83.63
20710;BME280;10516;51.518;9.864;2024-03-08T07:58:12;98977.75;;;-0.15;83.23
20710;BME280;10516;51.518;9.864;2024-03-08T08:00:38;98980.91;;;-0.20;83.71
20710;BME280;10516;51.518;9.864;2024-03-08T08:03:04;98980.78;;;-0.04;83.69
20710;BME280;10516;51.518;9.864;2024-03-08T08:05:30;98978.84;;;0.42;82.36
20710;BME280;10516;51.518;9.864;2024-03-08T08:08:00;98965.81;;;0.49;81.08
20710;BME280;10516;51.518;9.864;2024-03-08T08:10:28;98968.25;;;0.65;81.33
20710;BME280;10516;51.518;9.864;2024-03-08T08:12:54;98967.16;;;0.16;82.00
20710;BME280;10516;51.518;9.864;2024-03-08T08:15:19;98968.56;;;-0.11;83.15
20710;BME280;10516;51.518;9.864;2024-03-08T08:17:45;98967.91;;;0.53;81.93
20710;BME280;10516;51.518;9.864;2024-03-08T08:20:12;98964.44;;;0.53;81.55
20710;BME280;10516;51.518;9.864;2024-03-08T08:22:42;98963.09;;;0.13;82.99
20710;BME280;10516;51.518;9.864;2024-03-08T08:25:10;98958.75;;;0.35;83.34
20710;BME280;10516;51.518;9.864;2024-03-08T08:27:41;98956.81;;;0.87;81.17
20710;BME280;10516;51.518;9.864;2024-03-08T08:30:08;98943.06;;;0.85;79.51
20710;BME280;10516;51.518;9.864;2024-03-08T08:32:34;98963.16;;;1.14;80.63
20710;BME280;10516;51.518;9.864;2024-03-08T08:35:01;98958.94;;;1.13;78.89
20710;BME280;10516;51.518;9.864;2024-03-08T08:37:27;98955.38;;;0.85;79.09
20710;BME280;10516;51.518;9.864;2024-03-08T08:39:53;98954.16;;;1.02;80.27
20710;BME280;10516;51.518;9.864;2024-03-08T08:42:19;98955.63;;;1.46;79.03
20710;BME280;10516;51.518;9.864;2024-03-08T08:44:44;98945.47;;;1.22;78.40
20710;BME280;10516;51.518;9.864;2024-03-08T08:47:10;98940.44;;;1.63;78.87
20710;BME280;10516;51.518;9.864;2024-03-08T08:49:35;98937.97;;;1.19;79.25
20710;BME280;10516;51.518;9.864;2024-03-08T08:52:01;98919.31;;;1.14;79.13
20710;BME280;10516;51.518;9.864;2024-03-08T08:54:26;98926.00;;;1.17;79.49
20710;BME280;10516;51.518;9.864;2024-03-08T08:56:52;98923.25;;;1.25;78.85
20710;BME280;10516;51.518;9.864;2024-03-08T08:59:18;98914.44;;;1.11;79.02
20710;BME280;10516;51.518;9.864;2024-03-08T09:01:47;98915.75;;;1.43;78.70
20710;BME280;10516;51.518;9.864;2024-03-08T09:04:12;98915.75;;;1.22;79.67
20710;BME280;10516;51.518;9.864;2024-03-08T09:06:38;98903.69;;;1.06;79.54
20710;BME280;10516;51.518;9.864;2024-03-08T09:09:06;98896.97;;;1.25;79.34
20710;BME280;10516;51.518;9.864;2024-03-08T09:11:34;98906.91;;;1.72;78.62
20710;BME280;10516;51.518;9.864;2024-03-08T09:13:59;98898.75;;;1.88;78.23
20710;BME280;10516;51.518;9.864;2024-03-08T09:16:25;98902.81;;;1.97;76.70
20710;BME280;10516;51.518;9.864;2024-03-08T09:18:51;98897.69;;;2.16;78.24
20710;BME280;10516;51.518;9.864;2024-03-08T09:21:17;98898.78;;;1.94;77.64
20710;BME280;10516;51.518;9.864;2024-03-08T09:23:42;98900.34;;;1.89;77.81
20710;BME280;10516;51.518;9.864;2024-03-08T09:26:10;98899.78;;;1.93;78.14
20710;BME280;10516;51.518;9.864;2024-03-08T09:28:38;98894.66;;;1.85;77.37
20710;BME280;10516;51.518;9.864;2024-03-08T09:31:03;98897.19;;;1.72;76.97
20710;BME280;10516;51.518;9.864;2024-03-08T09:33:30;98885.38;;;1.89;76.88
20710;BME280;10516;51.518;9.864;2024-03-08T09:35:56;98880.28;;;1.81;77.29
20710;BME280;10516;51.518;9.864;2024-03-08T09:38:23;98883.41;;;1.98;77.07
20710;BME280;10516;51.518;9.864;2024-03-08T09:40:50;98859.34;;;2.01;77.37
20710;BME280;10516;51.518;9.864;2024-03-08T09:43:16;98863.00;;;2.47;78.19
20710;BME280;10516;51.518;9.864;2024-03-08T09:45:45;98864.84;;;2.47;76.61
20710;BME280;10516;51.518;9.864;2024-03-08T09:48:12;98861.31;;;2.26;77.72
20710;BME280;10516;51.518;9.864;2024-03-08T09:50:40;98865.34;;;2.22;76.96
20710;BME280;10516;51.518;9.864;2024-03-08T09:53:13;98865.50;;;2.55;76.38
20710;BME280;10516;51.518;9.864;2024-03-08T09:55:38;98849.34;;;2.24;75.71
20710;BME280;10516;51.518;9.864;2024-03-08T09:58:11;98844.69;;;2.26;76.24
20710;BME280;10516;51.518;9.864;2024-03-08T10:00:53;98842.41;;;2.64;76.94
20710;BME280;10516;51.518;9.864;2024-03-08T10:03:21;98824.63;;;2.85;75.29
20710;BME280;10516;51.518;9.864;2024-03-08T10:05:47;98829.06;;;2.78;75.17
20710;BME280;10516;51.518;9.864;2024-03-08T10:08:12;98816.88;;;2.64;74.51
20710;BME280;10516;51.518;9.864;2024-03-08T10:10:38;98824.22;;;2.88;74.89
20710;BME280;10516;51.518;9.864;2024-03-08T10:13:07;98810.03;;;2.83;75.28
20710;BME280;10516;51.518;9.864;2024-03-08T10:15:33;98816.94;;;2.84;74.68
20710;BME280;10516;51.518;9.864;2024-03-08T10:17:59;98804.13;;;2.74;73.93
20710;BME280;10516;51.518;9.864;2024-03-08T10:20:24;98796.84;;;2.76;74.33
20710;BME280;10516;51.518;9.864;2024-03-08T10:22:52;98799.91;;;2.99;74.62
20710;BME280;10516;51.518;9.864;2024-03-08T10:25:20;98796.66;;;3.11;74.91
20710;BME280;10516;51.518;9.864;2024-03-08T10:27:46;98790.19;;;3.07;73.60
20710;BME280;10516;51.518;9.864;2024-03-08T10:30:15;98785.34;;;3.17;73.33
20710;BME280;10516;51.518;9.864;2024-03-08T10:32:44;98778.81;;;3.19;72.71
20710;BME280;10516;51.518;9.864;2024-03-08T10:35:10;98791.41;;;3.11;72.73
20710;BME280;10516;51.518;9.864;2024-03-08T10:37:44;98765.03;;;2.91;72.11
20710;BME280;10516;51.518;9.864;2024-03-08T10:40:16;98777.22;;;3.31;74.57
20710;BME280;10516;51.518;9.864;2024-03-08T10:42:58;98785.31;;;3.49;73.77
20710;BME280;10516;51.518;9.864;2024-03-08T10:45:39;98773.97;;;3.49;73.80
20710;BME280;10516;51.518;9.864;2024-03-08T10:48:30;98758.53;;;3.26;73.03
20710;BME280;10516;51.518;9.864;2024-03-08T10:51:04;98770.28;;;3.43;73.07
20710;BME280;10516;51.518;9.864;2024-03-08T10:53:30;98764.03;;;3.38;72.66
20710;BME280;10516;51.518;9.864;2024-03-08T10:55:57;98753.84;;;3.48;72.13
20710;BME280;10516;51.518;9.864;2024-03-08T10:58:24;98738.63;;;3.50;72.46
20710;BME280;10516;51.518;9.864;2024-03-08T11:00:55;98748.56;;;3.61;73.21
20710;BME280;10516;51.518;9.864;2024-03-08T11:06:06;98747.53;;;3.75;72.01
20710;BME280;10516;51.518;9.864;2024-03-08T11:08:33;98742.63;;;3.72;72.24
20710;BME280;10516;51.518;9.864;2024-03-08T11:10:59;98737.31;;;3.92;72.40
20710;BME280;10516;51.518;9.864;2024-03-08T11:13:40;98734.19;;;4.14;72.94
20710;BME280;10516;51.518;9.864;2024-03-08T11:16:37;98729.78;;;3.95;70.43
20710;BME280;10516;51.518;9.864;2024-03-08T11:21:36;98725.00;;;4.23;71.03
20710;BME280;10516;51.518;9.864;2024-03-08T11:24:10;98732.63;;;4.38;71.31
20710;BME280;10516;51.518;9.864;2024-03-08T11:26:45;98711.78;;;4.23;69.74
20710;BME280;10516;51.518;9.864;2024-03-08T11:32:27;98712.00;;;4.84;69.98
20710;BME280;10516;51.518;9.864;2024-03-08T11:34:53;98709.84;;;4.75;69.79
20710;BME280;10516;51.518;9.864;2024-03-08T11:37:20;98715.47;;;4.85;70.34
20710;BME280;10516;51.518;9.864;2024-03-08T11:39:50;98700.34;;;5.16;70.02
20710;BME280;10516;51.518;9.864;2024-03-08T11:42:16;98709.69;;;5.19;69.97
20710;BME280;10516;51.518;9.864;2024-03-08T11:44:43;98706.03;;;4.95;69.85
20710;BME280;10516;51.518;9.864;2024-03-08T11:47:10;98703.72;;;4.74;69.53
20710;BME280;10516;51.518;9.864;2024-03-08T11:49:36;98702.13;;;4.73;68.91
20710;BME280;10516;51.518;9.864;2024-03-08T11:52:02;98687.13;;;4.92;70.56
20710;BME280;10516;51.518;9.864;2024-03-08T11:54:28;98685.81;;;4.76;69.38
20710;BME280;10516;51.518;9.864;2024-03-08T11:56:56;98690.22;;;4.57;69.39
20710;BME280;10516;51.518;9.864;2024-03-08T11:59:27;98693.47;;;5.09;70.52
20710;BME280;10516;51.518;9.864;2024-03-08T12:02:05;98682.53;;;4.81;68.87
20710;BME280;10516;51.518;9.864;2024-03-08T12:04:31;98673.00;;;4.80;68.24
20710;BME280;10516;51.518;9.864;2024-03-08T12:07:01;98678.53;;;4.96;69.83
20710;BME280;10516;51.518;9.864;2024-03-08T12:09:35;98674.88;;;5.22;69.70
20710;BME280;10516;51.518;9.864;2024-03-08T12:12:02;98667.09;;;5.45;69.38
20710;BME280;10516;51.518;9.864;2024-03-08T12:14:29;98679.72;;;5.43;68.78
20710;BME280;10516;51.518;9.864;2024-03-08T12:16:54;98685.19;;;5.66;67.98
20710;BME280;10516;51.518;9.864;2024-03-08T12:19:20;98678.56;;;5.39;68.51
20710;BME280;10516;51.518;9.864;2024-03-08T12:21:45;98667.94;;;5.21;68.56
20710;BME280;10516;51.518;9.864;2024-03-08T12:24:15;98653.84;;;5.45;70.34
20710;BME280;10516;51.518;9.864;2024-03-08T12:26:42;98667.09;;;5.63;67.80
20710;BME280;10516;51.518;9.864;2024-03-08T12:29:20;98656.47;;;5.81;67.03
20710;BME280;10516;51.518;9.864;2024-03-08T12:31:51;98645.03;;;5.87;67.92
20710;BME280;10516;51.518;9.864;2024-03-08T12:34:17;98635.81;;;5.90;68.42
20710;BME280;10516;51.518;9.864;2024-03-08T12:36:47;98646.63;;;5.70;69.68
20710;BME280;10516;51.518;9.864;2024-03-08T12:39:14;98632.38;;;5.89;68.56
20710;BME280;10516;51.518;9.864;2024-03-08T12:41:41;98635.75;;;5.42;66.81
20710;BME280;10516;51.518;9.864;2024-03-08T12:44:06;98640.31;;;5.71;66.38
20710;BME280;10516;51.518;9.864;2024-03-08T12:46:37;98633.41;;;5.88;65.93
20710;BME280;10516;51.518;9.864;2024-03-08T12:49:08;98624.13;;;5.79;66.09
20710;BME280;10516;51.518;9.864;2024-03-08T12:51:35;98600.41;;;6.55;67.25
20710;BME280;10516;51.518;9.864;2024-03-08T12:54:01;98612.34;;;6.23;66.56
20710;BME280;10516;51.518;9.864;2024-03-08T12:56:31;98621.69;;;6.90;68.25
20710;BME280;10516;51.518;9.864;2024-03-08T12:58:58;98615.50;;;6.43;67.74
20710;BME280;10516;51.518;9.864;2024-03-08T13:01:24;98601.50;;;6.25;65.55
20710;BME280;10516;51.518;9.864;2024-03-08T13:03:49;98614.69;;;5.83;65.76
20710;BME280;10516;51.518;9.864;2024-03-08T13:06:15;98608.28;;;6.50;67.44
20710;BME280;10516;51.518;9.864;2024-03-08T13:08:41;98596.88;;;6.09;66.36
20710;BME280;10516;51.518;9.864;2024-03-08T13:11:07;98601.72;;;6.99;67.95
20710;BME280;10516;51.518;9.864;2024-03-08T13:13:33;98580.03;;;7.02;65.99
20710;BME280;10516;51.518;9.864;2024-03-08T13:16:02;98591.91;;;7.11;66.82
20710;BME280;10516;51.518;9.864;2024-03-08T13:18:28;98590.06;;;6.65;66.11
20710;BME280;10516;51.518;9.864;2024-03-08T13:20:54;98582.09;;;6.54;64.34
20710;BME280;10516;51.518;9.864;2024-03-08T13:23:20;98583.47;;;7.14;64.66
20710;BME280;10516;51.518;9.864;2024-03-08T13:25:45;98579.34;;;6.95;64.71
20710;BME280;10516;51.518;9.864;2024-03-08T13:28:13;98575.75;;;6.66;66.39
20710;BME280;10516;51.518;9.864;2024-03-08T13:30:38;98585.09;;;7.15;64.57
20710;BME280;10516;51.518;9.864;2024-03-08T13:33:04;98570.22;;;6.79;63.92
20710;BME280;10516;51.518;9.864;2024-03-08T13:35:30;98567.66;;;6.38;64.63
20710;BME280;10516;51.518;9.864;2024-03-08T13:37:56;98575.22;;;6.88;67.11
20710;BME280;10516;51.518;9.864;2024-03-08T13:40:21;98556.22;;;7.30;64.76
20710;BME280;10516;51.518;9.864;2024-03-08T13:42:47;98564.84;;;8.50;63.57
20710;BME280;10516;51.518;9.864;2024-03-08T13:45:14;98553.09;;;8.01;63.71
20710;BME280;10516;51.518;9.864;2024-03-08T13:47:43;98548.00;;;8.00;63.44